Evadale, TX (77615)

8:14 PM CST on January 29, 2015 (GMT -0600)
APRSWXNET Silsbee TX US | Change Station
CLOSE
Current Station
Personal Weather Station
Location: Silsbee, TX
Elevation: 73 ft
Nearby Weather Stations

Elev 73 ft 30.40 °N, 94.18 °W | Updated 25 minutes ago

Clear
Clear
59 °F
Feels Like 59 °F
N
0
Wind Variable Wind from North
Gusts 0.0 mph

Today
High -- | Low -- °F
--% Chance of Precip.
Yesterday
High -- | Low -- °F
Precip. -- in
7:08 AM 5:50 PM
Waxing Gibbous, 79% visible
Pressure 30.26 in
Visibility 10.0 miles
Clouds Mostly Cloudy 4600 ft
Dew Point 57 °F
Humidity 93%
Rainfall 0.00 in
Snow Depth Not available.
UV 0 out of 12
Pollen 7.20 out of 12
Air Quality Not available.
Flu Activity Not available.
METAR KBMT 300155Z AUTO 24003KT 10SM BKN046 18/16 A3026 RMK AO2 T01760155

More Conditions Fewer Conditions

Pressure 30.26 in
Visibility 10.0 miles
Clouds Mostly Cloudy 4600 ft
Dew Point 57 °F
Humidity 93%
Rainfall 0.00 in
Snow Depth Not available.
UV 0 out of 12
Pollen 7.20 out of 12
Air Quality Not available.
Flu Activity Not available.
METAR KBMT 300155Z AUTO 24003KT 10SM BKN046 18/16 A3026 RMK AO2 T01760155

More Conditions Fewer Conditions

10-Day Weather Forecast

Almanac

Astronomy

Jan. 29, 2015 Rise Set
Actual Time
Civil Twilight
Nautical Twilight
Astronomical Twilight
Moon
Length of Visible Light
Length of Day
Tomorrow will be .
, % of the Moon is Illuminated

Today's Extremes

State Highs State Lows

Community

WunderPhotos

Upload Photos

1,791,689 photos uploaded!

WunderBlogs® & News

Nearby

Air Quality

  Air Quality AQ Index Pollutant
Not available.

Snow Depth

Station Depth Elevation

Earthquake Activity

City Distance Mag. Time & Date
Minimum magnitude displayed is 2.5.

Coastal Water Temperatures

Place Temperature

Nearby Weather Stations